createdAt,value
2018-05-10T00:01:28.199Z,20.30
2018-05-10T00:03:55.898Z,20.30
2018-05-10T00:06:24.363Z,20.30
2018-05-10T00:08:52.833Z,20.30
2018-05-10T00:11:20.508Z,20.30
2018-05-10T00:13:48.955Z,20.30
2018-05-10T00:16:16.667Z,20.30
2018-05-10T00:18:45.123Z,20.30
2018-05-10T00:21:12.811Z,20.20
2018-05-10T00:23:41.267Z,20.20
2018-05-10T00:26:08.964Z,20.20
2018-05-10T00:28:36.638Z,20.20
2018-05-10T00:31:04.343Z,20.20
2018-05-10T00:33:32.045Z,20.20
2018-05-10T00:36:00.512Z,20.20
2018-05-10T00:38:28.242Z,20.20
2018-05-10T00:40:55.948Z,20.20
2018-05-10T00:43:24.427Z,20.20
2018-05-10T00:45:52.872Z,20.20
2018-05-10T00:48:20.554Z,20.20
2018-05-10T00:50:48.643Z,20.20
2018-05-10T00:53:16.334Z,20.20
2018-05-10T00:55:44.022Z,20.10
2018-05-10T00:58:12.383Z,20.20
2018-05-10T01:00:40.121Z,20.10
2018-05-10T01:03:09.497Z,20.10
2018-05-10T01:05:37.193Z,20.10
2018-05-10T01:08:05.665Z,20.10
2018-05-10T01:10:33.360Z,20.10
2018-05-10T01:13:01.069Z,20.10
2018-05-10T01:15:28.831Z,20.10
2018-05-10T01:17:56.502Z,20.10
2018-05-10T01:20:24.209Z,20.10
2018-05-10T01:22:51.939Z,20.10
2018-05-10T01:25:19.651Z,20.10
2018-05-10T01:27:47.345Z,20.10
2018-05-10T01:30:15.109Z,20.10
2018-05-10T01:32:42.792Z,20.10
2018-05-10T01:35:22.153Z,20.00
2018-05-10T01:37:50.655Z,20.10
2018-05-10T01:40:18.358Z,20.10
2018-05-10T01:42:46.074Z,20.00
2018-05-10T01:45:13.783Z,20.00
2018-05-10T01:47:41.480Z,20.00
2018-05-10T01:50:09.942Z,20.00
2018-05-10T01:52:37.704Z,20.00
2018-05-10T01:55:05.502Z,20.00
2018-05-10T01:57:33.211Z,20.00
2018-05-10T02:00:00.891Z,20.10
2018-05-10T02:02:28.593Z,20.00
2018-05-10T02:04:57.177Z,20.00
2018-05-10T02:07:25.646Z,20.10
2018-05-10T02:09:53.334Z,20.00
2018-05-10T02:12:21.038Z,20.00
2018-05-10T02:14:48.793Z,20.00
2018-05-10T02:17:16.469Z,20.00
2018-05-10T02:19:44.276Z,20.00
2018-05-10T02:22:12.741Z,20.00
2018-05-10T02:24:40.449Z,20.00
2018-05-10T02:27:08.181Z,20.00
2018-05-10T02:29:36.640Z,20.00
2018-05-10T02:32:04.342Z,20.00
2018-05-10T02:34:32.801Z,20.00
2018-05-10T02:37:00.512Z,20.00
2018-05-10T02:39:28.199Z,20.00
2018-05-10T02:41:55.906Z,20.00
2018-05-10T02:44:24.367Z,20.00
2018-05-10T02:46:52.071Z,20.00
2018-05-10T02:49:19.791Z,20.00
2018-05-10T02:51:47.484Z,20.00
2018-05-10T02:54:15.959Z,20.00
2018-05-10T02:56:44.434Z,20.00
2018-05-10T02:59:12.895Z,20.00
2018-05-10T03:01:40.579Z,20.00
2018-05-10T03:04:09.154Z,20.00
2018-05-10T03:06:36.852Z,20.00
2018-05-10T03:09:05.337Z,20.00
2018-05-10T03:11:33.074Z,20.00
2018-05-10T03:14:01.528Z,20.00
2018-05-10T03:16:29.217Z,19.90
2018-05-10T03:18:56.914Z,20.00
2018-05-10T03:21:24.603Z,20.00
2018-05-10T03:23:52.281Z,20.00
2018-05-10T03:26:19.982Z,20.00
2018-05-10T03:28:48.434Z,20.00
2018-05-10T03:31:16.120Z,19.90
2018-05-10T03:33:44.602Z,20.00
2018-05-10T03:36:13.892Z,20.00
2018-05-10T03:38:41.581Z,19.90
2018-05-10T03:41:10.046Z,20.00
2018-05-10T03:43:38.505Z,20.00
2018-05-10T03:46:06.234Z,19.90
2018-05-10T03:48:33.921Z,20.00
2018-05-10T03:51:01.604Z,20.00
2018-05-10T03:53:29.291Z,20.00
2018-05-10T03:55:57.751Z,20.00
2018-05-10T03:58:25.444Z,19.90
2018-05-10T04:00:53.900Z,20.00
2018-05-10T04:03:52.856Z,20.00
2018-05-10T08:35:52.559Z,20.00
2018-05-10T08:38:20.260Z,20.50
2018-05-10T08:40:48.034Z,20.60
2018-05-10T08:43:16.514Z,20.50
2018-05-10T08:45:44.216Z,20.50
2018-05-10T08:48:11.934Z,20.50
2018-05-10T08:50:39.629Z,20.40
2018-05-10T08:53:08.175Z,20.40
2018-05-10T08:55:36.032Z,20.40
2018-05-10T08:58:03.755Z,20.50
2018-05-10T09:00:31.659Z,20.90
2018-05-10T09:02:59.340Z,20.90
2018-05-10T09:05:27.028Z,21.00
2018-05-10T09:07:55.572Z,20.90
2018-05-10T09:10:23.260Z,20.90
2018-05-10T09:12:51.100Z,20.80
2018-05-10T09:15:18.811Z,20.70
2018-05-10T09:17:47.288Z,20.60
2018-05-10T09:20:15.836Z,20.60
2018-05-10T09:22:43.514Z,20.60
2018-05-10T09:25:11.362Z,20.60
2018-05-10T09:27:39.055Z,20.60
2018-05-10T09:30:06.891Z,20.50
2018-05-10T09:32:34.586Z,20.60
2018-05-10T09:35:02.270Z,20.50
2018-05-10T09:37:30.890Z,20.60
2018-05-10T09:39:58.576Z,20.50
2018-05-10T09:42:26.435Z,20.60
2018-05-10T09:44:54.195Z,20.60
2018-05-10T09:47:21.964Z,20.60
2018-05-10T09:49:49.640Z,20.50
2018-05-10T09:52:17.366Z,20.50
2018-05-10T09:54:45.051Z,20.60
2018-05-10T09:57:12.770Z,20.60
2018-05-10T09:59:41.409Z,20.50
2018-05-10T10:02:09.109Z,20.60
2018-05-10T10:04:37.594Z,20.60
2018-05-10T10:07:06.613Z,20.60
2018-05-10T10:09:34.297Z,20.60
2018-05-10T10:12:01.991Z,20.60
2018-05-10T10:14:29.690Z,20.60
2018-05-10T10:16:58.322Z,20.70
2018-05-10T10:19:26.045Z,20.60
2018-05-10T10:21:53.737Z,20.70
2018-05-10T10:24:21.438Z,20.70
2018-05-10T10:26:49.176Z,20.70
2018-05-10T10:29:17.058Z,20.70
2018-05-10T10:31:44.756Z,20.70
2018-05-10T10:34:13.298Z,20.70
2018-05-10T10:36:40.981Z,20.70
2018-05-10T10:39:09.014Z,20.70
2018-05-10T10:41:36.702Z,20.70
2018-05-10T10:44:04.402Z,20.70
2018-05-10T10:46:33.043Z,20.70
2018-05-10T10:49:00.772Z,20.70
2018-05-10T10:51:28.573Z,20.70
2018-05-10T10:53:56.381Z,20.70
2018-05-10T10:56:24.057Z,20.70
2018-05-10T10:58:51.777Z,20.70
2018-05-10T11:01:19.477Z,20.60
2018-05-10T11:03:48.114Z,20.60
2018-05-10T11:06:15.802Z,20.60
2018-05-10T11:08:43.576Z,20.60
2018-05-10T11:11:11.411Z,20.60
2018-05-10T11:13:39.099Z,20.60
2018-05-10T11:16:06.790Z,20.60
2018-05-10T11:18:35.258Z,20.60
2018-05-10T11:21:03.802Z,20.60
2018-05-10T11:23:31.649Z,20.60
2018-05-10T11:25:59.434Z,20.60
2018-05-10T11:28:27.131Z,20.60
2018-05-10T11:30:54.826Z,20.60
2018-05-10T11:33:22.573Z,20.60
2018-05-10T11:35:51.038Z,20.60
2018-05-10T11:38:18.877Z,20.60
2018-05-10T11:40:46.574Z,20.60
2018-05-10T11:43:15.048Z,20.60
2018-05-10T11:45:42.738Z,20.60
2018-05-10T11:48:11.206Z,20.60
2018-05-10T11:50:39.776Z,20.60
2018-05-10T11:53:08.010Z,20.60
2018-05-10T11:55:35.895Z,20.60
2018-05-10T11:58:03.602Z,20.60
2018-05-10T12:00:32.057Z,20.60
2018-05-10T12:02:59.748Z,20.60
2018-05-10T12:05:28.204Z,20.60
2018-05-10T12:07:56.051Z,20.60
2018-05-10T12:10:23.749Z,20.60
2018-05-10T12:12:51.584Z,20.60
2018-05-10T12:15:19.260Z,20.60
2018-05-10T12:17:47.017Z,20.60
2018-05-10T12:20:14.722Z,20.60
2018-05-10T12:22:43.174Z,20.60
2018-05-10T12:25:11.030Z,20.60
2018-05-10T12:27:38.719Z,20.60
2018-05-10T12:30:06.494Z,20.60
2018-05-10T12:32:34.939Z,20.60
2018-05-10T12:35:02.666Z,20.60
2018-05-10T12:37:30.339Z,20.60
2018-05-10T12:39:58.062Z,20.70
2018-05-10T12:42:26.611Z,20.70
2018-05-10T12:44:54.309Z,20.60
2018-05-10T12:47:22.856Z,20.70
2018-05-10T12:49:50.553Z,20.60
2018-05-10T12:52:18.245Z,20.70
2018-05-10T12:54:45.951Z,20.60
2018-05-10T12:57:13.637Z,20.60
2018-05-10T12:59:41.480Z,20.60
2018-05-10T13:02:09.225Z,20.60
2018-05-10T13:04:37.009Z,20.70
2018-05-10T13:07:04.713Z,20.90
2018-05-10T13:09:33.160Z,21.30
2018-05-10T13:12:00.867Z,21.30
2018-05-10T13:14:29.304Z,21.60
2018-05-10T13:16:57.002Z,21.60
2018-05-10T13:19:25.518Z,21.80
2018-05-10T13:21:53.945Z,21.80
2018-05-10T13:24:21.655Z,21.80
2018-05-10T13:26:49.349Z,21.70
2018-05-10T13:29:17.045Z,21.80
2018-05-10T13:31:44.754Z,22.00
2018-05-10T13:34:12.449Z,22.00
2018-05-10T13:36:40.146Z,22.10
2018-05-10T13:39:09.153Z,21.90
2018-05-10T13:41:37.601Z,21.70
2018-05-10T13:44:05.331Z,21.70
2018-05-10T13:46:33.054Z,21.70
2018-05-10T13:49:01.516Z,21.60
2018-05-10T13:51:29.214Z,21.60
2018-05-10T13:53:56.922Z,21.60
2018-05-10T13:56:24.657Z,21.50
2018-05-10T13:58:52.351Z,21.50
2018-05-10T14:01:20.038Z,21.50
2018-05-10T14:03:47.742Z,21.40
2018-05-10T14:06:15.429Z,21.40
2018-05-10T14:08:43.146Z,21.40
2018-05-10T14:11:11.638Z,21.30
2018-05-10T14:13:39.340Z,21.30
2018-05-10T14:16:07.049Z,21.30
2018-05-10T14:18:34.748Z,21.30
2018-05-10T14:21:03.195Z,21.30
2018-05-10T14:23:30.877Z,21.30
2018-05-10T14:25:59.358Z,21.30
2018-05-10T14:28:27.817Z,21.20
2018-05-10T14:30:55.538Z,21.20
2018-05-10T14:33:23.232Z,21.30
2018-05-10T14:35:50.923Z,21.20
2018-05-10T14:38:19.393Z,21.20
2018-05-10T14:40:47.869Z,21.20
2018-05-10T14:43:15.568Z,21.20
2018-05-10T14:45:43.275Z,21.20
2018-05-10T14:48:11.003Z,21.20
2018-05-10T14:50:38.717Z,21.20
2018-05-10T14:53:06.444Z,21.20
2018-05-10T14:55:34.159Z,21.20
2018-05-10T14:58:01.859Z,21.20
2018-05-10T15:00:29.559Z,21.20
2018-05-10T15:02:57.342Z,21.20
2018-05-10T15:05:25.053Z,21.20
2018-05-10T15:07:52.759Z,21.20
2018-05-10T15:10:20.465Z,21.20
2018-05-10T15:12:48.917Z,21.20
2018-05-10T15:15:16.629Z,21.20
2018-05-10T15:17:44.340Z,21.20
2018-05-10T15:20:12.048Z,21.20
2018-05-10T15:22:39.749Z,21.20
2018-05-10T15:25:07.478Z,21.20
2018-05-10T15:27:35.163Z,21.20
2018-05-10T15:30:02.938Z,21.20
2018-05-10T15:32:30.808Z,21.20
2018-05-10T15:34:58.516Z,21.20
2018-05-10T15:37:26.992Z,21.20
2018-05-10T15:39:55.448Z,21.20
2018-05-10T15:42:23.148Z,21.20
2018-05-10T15:44:51.651Z,21.20
2018-05-10T15:47:19.336Z,21.20
2018-05-10T15:49:47.029Z,21.20
2018-05-10T15:52:14.728Z,21.20
2018-05-10T15:54:43.195Z,21.20
2018-05-10T15:57:11.666Z,21.10
2018-05-10T15:59:39.385Z,21.20
2018-05-10T16:02:07.091Z,21.20
2018-05-10T16:04:35.556Z,21.10
2018-05-10T16:07:03.269Z,21.20
2018-05-10T16:09:30.961Z,21.20
2018-05-10T16:11:58.648Z,21.20
2018-05-10T16:14:26.356Z,21.20
2018-05-10T16:16:54.061Z,21.20
2018-05-10T16:19:21.784Z,21.20
2018-05-10T16:21:50.267Z,21.10
2018-05-10T16:24:18.757Z,21.20
2018-05-10T16:26:46.460Z,21.20
2018-05-10T16:29:14.162Z,21.10
2018-05-10T16:31:42.630Z,21.10
2018-05-10T16:34:10.352Z,21.20
2018-05-10T16:36:38.073Z,21.10
2018-05-10T16:39:06.526Z,21.10
2018-05-10T16:41:34.226Z,21.10
2018-05-10T16:44:02.707Z,21.20
2018-05-10T16:46:31.316Z,21.30
2018-05-10T16:48:59.003Z,21.20
2018-05-10T16:51:26.693Z,21.20
2018-05-10T16:53:54.388Z,21.30
2018-05-10T16:56:22.873Z,21.30
2018-05-10T16:58:50.594Z,21.30
2018-05-10T17:01:18.307Z,21.30
2018-05-10T17:03:46.009Z,21.30
2018-05-10T17:06:13.732Z,21.40
2018-05-10T17:08:41.453Z,21.30
2018-05-10T17:11:09.762Z,21.40
2018-05-10T17:13:38.238Z,21.40
2018-05-10T17:16:06.695Z,21.40
2018-05-10T17:18:35.193Z,21.40
2018-05-10T17:21:03.669Z,21.40
2018-05-10T17:23:31.428Z,21.40
2018-05-10T17:25:59.141Z,21.40
2018-05-10T17:28:26.899Z,21.40
2018-05-10T17:30:54.715Z,21.40
2018-05-10T17:33:22.388Z,21.40
2018-05-10T17:35:50.139Z,21.50
2018-05-10T17:38:17.859Z,21.50
2018-05-10T17:40:45.570Z,21.50
2018-05-10T17:43:13.277Z,21.50
2018-05-10T17:45:41.011Z,21.50
2018-05-10T17:48:08.758Z,21.50
2018-05-10T17:50:36.489Z,21.50
2018-05-10T17:53:04.198Z,21.50
2018-05-10T17:55:32.010Z,21.50
2018-05-10T17:57:59.709Z,21.60
2018-05-10T18:00:27.438Z,21.60
2018-05-10T18:02:55.191Z,21.60
2018-05-10T18:05:23.781Z,21.60
2018-05-10T18:07:52.313Z,21.60
2018-05-10T18:10:20.129Z,21.60
2018-05-10T18:12:48.593Z,21.60
2018-05-10T18:15:17.082Z,21.60
2018-05-10T18:17:45.538Z,21.70
2018-05-10T18:20:13.240Z,21.60
2018-05-10T18:22:41.010Z,21.70
2018-05-10T18:25:08.725Z,21.70
2018-05-10T18:27:36.424Z,21.70
2018-05-10T18:30:06.073Z,21.70
2018-05-10T18:32:33.812Z,21.70
2018-05-10T18:35:01.519Z,21.70
2018-05-10T18:37:29.289Z,21.70
2018-05-10T18:39:57.367Z,21.70
2018-05-10T18:42:25.135Z,21.80
2018-05-10T18:44:52.842Z,21.70
2018-05-10T18:47:20.573Z,21.80
2018-05-10T18:49:48.434Z,21.80
2018-05-10T18:52:16.195Z,21.80
2018-05-10T18:54:43.991Z,21.80
2018-05-10T18:57:11.645Z,21.80
2018-05-10T18:59:40.172Z,21.80
2018-05-10T19:02:07.877Z,21.80
2018-05-10T19:04:35.593Z,21.80
2018-05-10T19:07:03.343Z,21.80
2018-05-10T19:09:31.984Z,21.80
2018-05-10T19:11:59.702Z,21.80
2018-05-10T19:17:01.335Z,21.80
2018-05-10T19:19:29.061Z,21.80
2018-05-10T19:21:56.761Z,21.80
2018-05-10T19:24:24.536Z,21.80
2018-05-10T19:26:53.021Z,21.80
2018-05-10T19:29:20.757Z,21.80
2018-05-10T19:31:49.360Z,21.80
2018-05-10T19:34:17.063Z,21.90
2018-05-10T19:36:44.807Z,21.80
2018-05-10T19:39:12.535Z,21.90
2018-05-10T19:41:40.265Z,21.90
2018-05-10T19:44:08.133Z,21.80
2018-05-10T19:46:35.860Z,21.80
2018-05-10T19:49:03.632Z,21.80
2018-05-10T19:51:33.045Z,21.90
2018-05-10T19:54:02.554Z,21.90
2018-05-10T19:56:30.368Z,21.90
2018-05-10T19:58:58.121Z,21.90
2018-05-10T20:01:25.875Z,21.90
2018-05-10T20:03:53.813Z,21.90
2018-05-10T20:06:22.269Z,21.90
2018-05-10T20:08:50.075Z,21.90
2018-05-10T20:11:17.797Z,21.90
2018-05-10T20:13:45.564Z,21.90
2018-05-10T20:16:13.309Z,21.80
2018-05-10T20:18:41.028Z,21.80
2018-05-10T20:21:08.806Z,21.80
2018-05-10T20:23:36.515Z,21.70
2018-05-10T20:26:04.278Z,21.70
2018-05-10T20:28:32.077Z,21.70
2018-05-10T20:30:59.747Z,21.70
2018-05-10T20:33:28.243Z,21.70
2018-05-10T20:35:55.953Z,21.60
2018-05-10T20:38:23.678Z,21.60
2018-05-10T20:40:51.381Z,21.60
2018-05-10T20:43:19.118Z,21.60
2018-05-10T20:45:46.822Z,21.60
2018-05-10T20:48:15.293Z,21.50
2018-05-10T20:50:43.026Z,21.50
2018-05-10T20:53:10.731Z,21.50
2018-05-10T20:55:38.499Z,21.50
2018-05-10T20:58:06.209Z,21.50
2018-05-10T21:00:33.956Z,21.50
2018-05-10T21:03:02.447Z,21.40
2018-05-10T21:05:31.526Z,21.40
2018-05-10T21:08:00.096Z,21.40
2018-05-10T21:10:27.794Z,21.40
2018-05-10T21:12:55.546Z,21.40
2018-05-10T21:15:24.006Z,21.40
2018-05-10T21:17:51.705Z,21.40
2018-05-10T21:20:19.410Z,21.40
2018-05-10T21:22:47.138Z,21.40
2018-05-10T21:25:14.893Z,21.30
2018-05-10T21:27:42.592Z,21.30
2018-05-10T21:30:11.175Z,21.30
2018-05-10T21:32:38.901Z,21.30
2018-05-10T21:35:06.658Z,21.30
2018-05-10T21:37:35.117Z,21.30
2018-05-10T21:40:02.814Z,21.30
2018-05-10T21:42:30.805Z,21.30
2018-05-10T21:44:58.518Z,21.30
2018-05-10T21:47:26.211Z,21.30
2018-05-10T21:50:02.552Z,21.30
2018-05-10T21:52:30.414Z,21.30
2018-05-10T21:54:58.068Z,21.30
2018-05-10T21:57:25.773Z,21.30
2018-05-10T21:59:53.461Z,21.30
2018-05-10T22:02:23.001Z,21.20
2018-05-10T22:04:51.517Z,21.20
2018-05-10T22:07:20.033Z,21.30
2018-05-10T22:09:47.734Z,21.20
2018-05-10T22:12:15.491Z,21.20
2018-05-10T22:14:43.149Z,21.20
2018-05-10T22:17:10.838Z,21.20
2018-05-10T22:19:39.307Z,21.20
2018-05-10T22:22:06.995Z,21.20
2018-05-10T22:24:35.452Z,21.20
2018-05-10T22:27:03.265Z,21.20
2018-05-10T22:29:30.996Z,21.20
2018-05-10T22:31:59.463Z,21.20
2018-05-10T22:34:27.145Z,21.20
2018-05-10T22:36:55.636Z,21.20
2018-05-10T22:39:24.136Z,21.20
2018-05-10T22:41:52.120Z,21.20
2018-05-10T22:44:19.909Z,21.20
2018-05-10T22:46:47.581Z,21.20
2018-05-10T22:49:15.301Z,21.30
2018-05-10T22:51:43.289Z,21.30
2018-05-10T22:54:11.003Z,21.30
2018-05-10T22:56:39.485Z,21.40
2018-05-10T22:59:08.284Z,21.40
2018-05-10T23:01:35.951Z,21.40
2018-05-10T23:04:04.521Z,21.40
2018-05-10T23:06:32.235Z,21.40
2018-05-10T23:08:59.964Z,21.40
2018-05-10T23:11:28.453Z,21.50
2018-05-10T23:13:56.168Z,21.50
2018-05-10T23:16:24.072Z,21.50
2018-05-10T23:18:52.527Z,21.50
2018-05-10T23:21:20.359Z,21.50
2018-05-10T23:23:48.050Z,21.50
2018-05-10T23:26:15.814Z,21.50
2018-05-10T23:28:43.550Z,21.50
2018-05-10T23:31:11.266Z,21.50
2018-05-10T23:33:38.979Z,21.50
2018-05-10T23:36:06.808Z,21.50
2018-05-10T23:38:35.263Z,21.50
2018-05-10T23:41:03.117Z,21.50
2018-05-10T23:43:30.831Z,21.50
2018-05-10T23:45:59.397Z,21.50
2018-05-10T23:48:27.910Z,21.60
2018-05-10T23:50:55.661Z,21.50
2018-05-10T23:53:24.137Z,21.60
2018-05-10T23:55:52.623Z,21.60
2018-05-10T23:58:21.084Z,21.60
